sensor_id;sensor_type;location;lat;lon;timestamp;P1;durP1;ratioP1;P2;durP2;ratioP2
25615;SDS011;13482;48.234;13.006;2022-10-29T00:00:55;6.00;;;3.15;;
25615;SDS011;13482;48.234;13.006;2022-10-29T00:03:23;3.78;;;2.78;;
25615;SDS011;13482;48.234;13.006;2022-10-29T00:06:01;4.00;;;2.67;;
25615;SDS011;13482;48.234;13.006;2022-10-29T00:08:32;4.22;;;2.75;;
25615;SDS011;13482;48.234;13.006;2022-10-29T00:11:15;5.32;;;2.67;;
25615;SDS011;13482;48.234;13.006;2022-10-29T00:13:45;4.38;;;2.70;;
25615;SDS011;13482;48.234;13.006;2022-10-29T00:16:18;5.57;;;2.50;;
25615;SDS011;13482;48.234;13.006;2022-10-29T00:18:49;3.45;;;2.40;;
25615;SDS011;13482;48.234;13.006;2022-10-29T00:21:17;4.93;;;2.60;;
25615;SDS011;13482;48.234;13.006;2022-10-29T00:23:47;3.67;;;2.90;;
25615;SDS011;13482;48.234;13.006;2022-10-29T00:26:16;4.13;;;2.60;;
25615;SDS011;13482;48.234;13.006;2022-10-29T00:28:46;3.97;;;2.85;;
25615;SDS011;13482;48.234;13.006;2022-10-29T00:31:15;4.40;;;2.78;;
25615;SDS011;13482;48.234;13.006;2022-10-29T00:33:44;3.83;;;2.20;;
25615;SDS011;13482;48.234;13.006;2022-10-29T00:36:13;3.80;;;2.28;;
25615;SDS011;13482;48.234;13.006;2022-10-29T00:38:43;4.18;;;2.47;;
25615;SDS011;13482;48.234;13.006;2022-10-29T00:41:12;3.60;;;2.35;;
25615;SDS011;13482;48.234;13.006;2022-10-29T00:43:45;2.97;;;2.45;;
25615;SDS011;13482;48.234;13.006;2022-10-29T00:46:23;4.47;;;2.63;;
25615;SDS011;13482;48.234;13.006;2022-10-29T00:48:57;4.50;;;3.00;;
25615;SDS011;13482;48.234;13.006;2022-10-29T00:51:25;4.20;;;2.65;;
25615;SDS011;13482;48.234;13.006;2022-10-29T00:54:01;4.63;;;3.08;;
25615;SDS011;13482;48.234;13.006;2022-10-29T00:56:34;4.18;;;3.20;;
25615;SDS011;13482;48.234;13.006;2022-10-29T00:59:05;6.35;;;3.13;;
25615;SDS011;13482;48.234;13.006;2022-10-29T01:01:34;4.57;;;3.28;;
25615;SDS011;13482;48.234;13.006;2022-10-29T01:04:03;4.03;;;2.83;;
25615;SDS011;13482;48.234;13.006;2022-10-29T01:06:30;5.40;;;3.00;;
25615;SDS011;13482;48.234;13.006;2022-10-29T01:08:59;3.95;;;2.92;;
25615;SDS011;13482;48.234;13.006;2022-10-29T01:14:37;4.13;;;2.47;;
25615;SDS011;13482;48.234;13.006;2022-10-29T01:23:50;4.53;;;2.22;;
25615;SDS011;13482;48.234;13.006;2022-10-29T01:35:14;2.58;;;1.80;;
25615;SDS011;13482;48.234;13.006;2022-10-29T01:38:03;2.88;;;2.08;;
25615;SDS011;13482;48.234;13.006;2022-10-29T01:43:48;3.65;;;2.20;;
25615;SDS011;13482;48.234;13.006;2022-10-29T01:46:30;2.80;;;2.10;;
25615;SDS011;13482;48.234;13.006;2022-10-29T01:49:04;3.05;;;2.10;;
25615;SDS011;13482;48.234;13.006;2022-10-29T01:51:37;4.38;;;2.33;;
25615;SDS011;13482;48.234;13.006;2022-10-29T01:54:06;3.17;;;2.28;;
25615;SDS011;13482;48.234;13.006;2022-10-29T01:56:36;4.07;;;2.35;;
25615;SDS011;13482;48.234;13.006;2022-10-29T01:59:05;3.63;;;2.40;;
25615;SDS011;13482;48.234;13.006;2022-10-29T02:12:58;2.63;;;1.95;;
25615;SDS011;13482;48.234;13.006;2022-10-29T02:15:28;2.75;;;1.83;;
25615;SDS011;13482;48.234;13.006;2022-10-29T02:18:15;4.10;;;2.03;;
25615;SDS011;13482;48.234;13.006;2022-10-29T02:20:43;3.55;;;2.08;;
25615;SDS011;13482;48.234;13.006;2022-10-29T02:23:12;5.13;;;2.38;;
25615;SDS011;13482;48.234;13.006;2022-10-29T02:25:40;6.35;;;3.08;;
25615;SDS011;13482;48.234;13.006;2022-10-29T02:28:07;5.28;;;3.03;;
25615;SDS011;13482;48.234;13.006;2022-10-29T02:30:34;5.97;;;3.08;;
25615;SDS011;13482;48.234;13.006;2022-10-29T02:33:01;6.57;;;3.40;;
25615;SDS011;13482;48.234;13.006;2022-10-29T02:35:29;5.00;;;3.25;;
25615;SDS011;13482;48.234;13.006;2022-10-29T02:37:56;5.45;;;3.45;;
25615;SDS011;13482;48.234;13.006;2022-10-29T02:40:23;4.63;;;2.95;;
25615;SDS011;13482;48.234;13.006;2022-10-29T02:42:50;12.07;;;2.90;;
25615;SDS011;13482;48.234;13.006;2022-10-29T02:45:17;5.53;;;2.90;;
25615;SDS011;13482;48.234;13.006;2022-10-29T02:47:45;4.32;;;2.42;;
25615;SDS011;13482;48.234;13.006;2022-10-29T02:50:12;4.30;;;2.55;;
25615;SDS011;13482;48.234;13.006;2022-10-29T02:52:41;5.25;;;2.97;;
25615;SDS011;13482;48.234;13.006;2022-10-29T02:55:09;3.03;;;2.40;;
25615;SDS011;13482;48.234;13.006;2022-10-29T02:57:36;4.53;;;2.30;;
25615;SDS011;13482;48.234;13.006;2022-10-29T03:00:04;3.00;;;2.25;;
25615;SDS011;13482;48.234;13.006;2022-10-29T03:02:31;3.65;;;2.45;;
25615;SDS011;13482;48.234;13.006;2022-10-29T03:04:59;4.40;;;2.75;;
25615;SDS011;13482;48.234;13.006;2022-10-29T03:07:26;3.65;;;2.53;;
25615;SDS011;13482;48.234;13.006;2022-10-29T03:09:53;3.53;;;2.47;;
25615;SDS011;13482;48.234;13.006;2022-10-29T03:12:20;3.70;;;2.80;;
25615;SDS011;13482;48.234;13.006;2022-10-29T03:14:47;4.40;;;2.50;;
25615;SDS011;13482;48.234;13.006;2022-10-29T03:17:14;4.07;;;2.53;;
25615;SDS011;13482;48.234;13.006;2022-10-29T03:19:42;4.53;;;2.60;;
25615;SDS011;13482;48.234;13.006;2022-10-29T03:22:09;4.20;;;2.65;;
25615;SDS011;13482;48.234;13.006;2022-10-29T03:24:36;3.58;;;2.45;;
25615;SDS011;13482;48.234;13.006;2022-10-29T03:27:03;4.05;;;2.67;;
25615;SDS011;13482;48.234;13.006;2022-10-29T03:29:30;4.32;;;2.50;;
25615;SDS011;13482;48.234;13.006;2022-10-29T03:31:57;4.00;;;2.75;;
25615;SDS011;13482;48.234;13.006;2022-10-29T03:34:24;3.85;;;2.92;;
25615;SDS011;13482;48.234;13.006;2022-10-29T03:36:52;4.63;;;2.67;;
25615;SDS011;13482;48.234;13.006;2022-10-29T03:39:19;3.20;;;2.42;;
25615;SDS011;13482;48.234;13.006;2022-10-29T03:41:46;3.75;;;2.83;;
25615;SDS011;13482;48.234;13.006;2022-10-29T03:44:13;5.32;;;2.90;;
25615;SDS011;13482;48.234;13.006;2022-10-29T03:46:40;3.97;;;2.55;;
25615;SDS011;13482;48.234;13.006;2022-10-29T03:49:07;3.42;;;2.55;;
25615;SDS011;13482;48.234;13.006;2022-10-29T03:51:35;2.92;;;2.20;;
25615;SDS011;13482;48.234;13.006;2022-10-29T03:54:02;4.40;;;2.85;;
25615;SDS011;13482;48.234;13.006;2022-10-29T03:56:29;3.22;;;2.40;;
25615;SDS011;13482;48.234;13.006;2022-10-29T03:58:56;4.18;;;2.97;;
25615;SDS011;13482;48.234;13.006;2022-10-29T04:01:23;5.10;;;2.92;;
25615;SDS011;13482;48.234;13.006;2022-10-29T04:03:51;4.25;;;3.15;;
25615;SDS011;13482;48.234;13.006;2022-10-29T04:06:18;4.97;;;2.85;;
25615;SDS011;13482;48.234;13.006;2022-10-29T04:08:45;3.97;;;3.10;;
25615;SDS011;13482;48.234;13.006;2022-10-29T04:11:12;3.45;;;2.55;;
25615;SDS011;13482;48.234;13.006;2022-10-29T04:13:40;3.97;;;3.22;;
25615;SDS011;13482;48.234;13.006;2022-10-29T04:16:07;3.28;;;2.78;;
25615;SDS011;13482;48.234;13.006;2022-10-29T04:18:34;3.60;;;2.65;;
25615;SDS011;13482;48.234;13.006;2022-10-29T04:21:01;3.88;;;2.83;;
25615;SDS011;13482;48.234;13.006;2022-10-29T04:23:50;3.20;;;2.50;;
25615;SDS011;13482;48.234;13.006;2022-10-29T04:26:37;11.30;;;2.58;;
25615;SDS011;13482;48.234;13.006;2022-10-29T04:29:24;5.10;;;2.78;;
25615;SDS011;13482;48.234;13.006;2022-10-29T04:31:51;3.67;;;2.85;;
25615;SDS011;13482;48.234;13.006;2022-10-29T04:34:18;3.70;;;2.70;;
25615;SDS011;13482;48.234;13.006;2022-10-29T04:36:45;7.60;;;2.80;;
25615;SDS011;13482;48.234;13.006;2022-10-29T04:39:12;2.85;;;2.22;;
25615;SDS011;13482;48.234;13.006;2022-10-29T04:41:46;5.75;;;2.50;;
25615;SDS011;13482;48.234;13.006;2022-10-29T04:44:14;3.75;;;2.20;;
25615;SDS011;13482;48.234;13.006;2022-10-29T04:46:42;2.60;;;2.03;;
25615;SDS011;13482;48.234;13.006;2022-10-29T04:49:09;3.10;;;2.00;;
25615;SDS011;13482;48.234;13.006;2022-10-29T04:51:37;3.80;;;2.00;;
25615;SDS011;13482;48.234;13.006;2022-10-29T04:54:04;3.10;;;2.10;;
25615;SDS011;13482;48.234;13.006;2022-10-29T04:56:31;3.40;;;2.08;;
25615;SDS011;13482;48.234;13.006;2022-10-29T04:58:59;3.17;;;2.40;;
25615;SDS011;13482;48.234;13.006;2022-10-29T05:01:26;4.15;;;2.17;;
25615;SDS011;13482;48.234;13.006;2022-10-29T05:03:53;3.42;;;2.47;;
25615;SDS011;13482;48.234;13.006;2022-10-29T05:06:25;4.80;;;3.05;;
25615;SDS011;13482;48.234;13.006;2022-10-29T05:08:52;3.65;;;2.55;;
25615;SDS011;13482;48.234;13.006;2022-10-29T05:11:19;3.50;;;2.53;;
25615;SDS011;13482;48.234;13.006;2022-10-29T05:13:46;3.78;;;2.83;;
25615;SDS011;13482;48.234;13.006;2022-10-29T05:16:13;3.20;;;2.55;;
25615;SDS011;13482;48.234;13.006;2022-10-29T05:18:41;3.70;;;2.95;;
25615;SDS011;13482;48.234;13.006;2022-10-29T05:21:08;2.95;;;2.60;;
25615;SDS011;13482;48.234;13.006;2022-10-29T05:23:35;3.47;;;2.45;;
25615;SDS011;13482;48.234;13.006;2022-10-29T05:26:02;3.45;;;2.72;;
25615;SDS011;13482;48.234;13.006;2022-10-29T05:28:29;3.88;;;2.58;;
25615;SDS011;13482;48.234;13.006;2022-10-29T05:30:58;3.78;;;2.58;;
25615;SDS011;13482;48.234;13.006;2022-10-29T05:33:27;3.33;;;2.75;;
25615;SDS011;13482;48.234;13.006;2022-10-29T05:35:55;3.70;;;2.80;;
25615;SDS011;13482;48.234;13.006;2022-10-29T05:38:25;4.03;;;2.60;;
25615;SDS011;13482;48.234;13.006;2022-10-29T05:40:52;3.03;;;2.20;;
25615;SDS011;13482;48.234;13.006;2022-10-29T05:43:19;3.85;;;3.13;;
25615;SDS011;13482;48.234;13.006;2022-10-29T05:45:46;3.78;;;2.90;;
25615;SDS011;13482;48.234;13.006;2022-10-29T05:48:13;2.85;;;2.42;;
25615;SDS011;13482;48.234;13.006;2022-10-29T05:50:40;3.20;;;2.40;;
25615;SDS011;13482;48.234;13.006;2022-10-29T05:53:11;3.08;;;2.65;;
25615;SDS011;13482;48.234;13.006;2022-10-29T05:55:40;4.03;;;2.50;;
25615;SDS011;13482;48.234;13.006;2022-10-29T05:58:11;3.38;;;2.65;;
25615;SDS011;13482;48.234;13.006;2022-10-29T06:00:40;3.53;;;2.70;;
25615;SDS011;13482;48.234;13.006;2022-10-29T06:03:14;3.72;;;2.50;;
25615;SDS011;13482;48.234;13.006;2022-10-29T06:05:48;2.60;;;2.15;;
25615;SDS011;13482;48.234;13.006;2022-10-29T06:08:16;2.92;;;2.35;;
25615;SDS011;13482;48.234;13.006;2022-10-29T06:10:44;3.28;;;2.63;;
25615;SDS011;13482;48.234;13.006;2022-10-29T06:13:15;4.47;;;2.88;;
25615;SDS011;13482;48.234;13.006;2022-10-29T06:15:44;3.30;;;2.47;;
25615;SDS011;13482;48.234;13.006;2022-10-29T06:18:13;3.58;;;2.40;;
25615;SDS011;13482;48.234;13.006;2022-10-29T06:20:41;3.75;;;2.45;;
25615;SDS011;13482;48.234;13.006;2022-10-29T06:23:11;3.58;;;2.42;;
25615;SDS011;13482;48.234;13.006;2022-10-29T06:25:38;3.95;;;2.50;;
25615;SDS011;13482;48.234;13.006;2022-10-29T06:28:06;3.63;;;2.88;;
25615;SDS011;13482;48.234;13.006;2022-10-29T06:33:04;4.35;;;3.08;;
25615;SDS011;13482;48.234;13.006;2022-10-29T06:35:31;5.03;;;3.75;;
25615;SDS011;13482;48.234;13.006;2022-10-29T06:38:04;4.93;;;3.58;;
25615;SDS011;13482;48.234;13.006;2022-10-29T06:40:37;7.22;;;3.80;;
25615;SDS011;13482;48.234;13.006;2022-10-29T06:43:05;8.52;;;3.67;;
25615;SDS011;13482;48.234;13.006;2022-10-29T06:45:35;4.60;;;3.13;;
25615;SDS011;13482;48.234;13.006;2022-10-29T06:48:02;4.00;;;3.03;;
25615;SDS011;13482;48.234;13.006;2022-10-29T06:50:30;2.92;;;2.28;;
25615;SDS011;13482;48.234;13.006;2022-10-29T06:52:58;2.92;;;2.38;;
25615;SDS011;13482;48.234;13.006;2022-10-29T06:55:34;3.20;;;2.70;;
25615;SDS011;13482;48.234;13.006;2022-10-29T06:58:02;4.15;;;3.03;;
25615;SDS011;13482;48.234;13.006;2022-10-29T07:00:38;2.75;;;2.38;;
25615;SDS011;13482;48.234;13.006;2022-10-29T07:03:28;2.60;;;2.20;;
25615;SDS011;13482;48.234;13.006;2022-10-29T07:05:55;3.67;;;2.53;;
25615;SDS011;13482;48.234;13.006;2022-10-29T07:08:24;3.22;;;2.63;;
25615;SDS011;13482;48.234;13.006;2022-10-29T07:10:52;3.65;;;2.50;;
25615;SDS011;13482;48.234;13.006;2022-10-29T07:13:19;2.85;;;2.55;;
25615;SDS011;13482;48.234;13.006;2022-10-29T07:15:47;3.95;;;3.13;;
25615;SDS011;13482;48.234;13.006;2022-10-29T07:18:14;3.80;;;3.40;;
25615;SDS011;13482;48.234;13.006;2022-10-29T07:20:42;6.57;;;3.70;;
25615;SDS011;13482;48.234;13.006;2022-10-29T07:23:10;3.92;;;3.22;;
25615;SDS011;13482;48.234;13.006;2022-10-29T07:25:39;3.83;;;2.90;;
25615;SDS011;13482;48.234;13.006;2022-10-29T07:28:13;3.20;;;2.42;;
25615;SDS011;13482;48.234;13.006;2022-10-29T07:30:43;3.00;;;2.50;;
25615;SDS011;13482;48.234;13.006;2022-10-29T07:33:10;3.08;;;2.33;;
25615;SDS011;13482;48.234;13.006;2022-10-29T07:35:38;2.40;;;2.20;;
25615;SDS011;13482;48.234;13.006;2022-10-29T07:38:05;2.78;;;2.30;;
25615;SDS011;13482;48.234;13.006;2022-10-29T07:40:37;2.40;;;2.15;;
25615;SDS011;13482;48.234;13.006;2022-10-29T07:43:06;2.85;;;2.50;;
25615;SDS011;13482;48.234;13.006;2022-10-29T07:45:34;3.05;;;2.75;;
25615;SDS011;13482;48.234;13.006;2022-10-29T07:48:02;3.30;;;2.85;;
25615;SDS011;13482;48.234;13.006;2022-10-29T07:50:32;3.50;;;2.72;;
25615;SDS011;13482;48.234;13.006;2022-10-29T07:53:00;4.32;;;3.30;;
25615;SDS011;13482;48.234;13.006;2022-10-29T07:55:28;3.85;;;3.05;;
25615;SDS011;13482;48.234;13.006;2022-10-29T07:57:56;4.20;;;3.30;;
25615;SDS011;13482;48.234;13.006;2022-10-29T08:00:29;3.80;;;3.20;;
25615;SDS011;13482;48.234;13.006;2022-10-29T08:02:58;3.83;;;3.20;;
25615;SDS011;13482;48.234;13.006;2022-10-29T08:05:26;3.42;;;3.13;;
25615;SDS011;13482;48.234;13.006;2022-10-29T08:07:54;5.35;;;3.30;;
25615;SDS011;13482;48.234;13.006;2022-10-29T08:10:23;3.20;;;2.88;;
25615;SDS011;13482;48.234;13.006;2022-10-29T08:12:52;4.82;;;3.38;;
25615;SDS011;13482;48.234;13.006;2022-10-29T08:15:22;4.00;;;3.40;;
25615;SDS011;13482;48.234;13.006;2022-10-29T08:17:50;4.03;;;3.17;;
25615;SDS011;13482;48.234;13.006;2022-10-29T08:20:18;5.07;;;3.70;;
25615;SDS011;13482;48.234;13.006;2022-10-29T08:22:46;4.20;;;3.40;;
25615;SDS011;13482;48.234;13.006;2022-10-29T08:25:13;4.65;;;3.42;;
25615;SDS011;13482;48.234;13.006;2022-10-29T08:27:42;3.70;;;3.20;;
25615;SDS011;13482;48.234;13.006;2022-10-29T08:30:10;4.53;;;3.40;;
25615;SDS011;13482;48.234;13.006;2022-10-29T08:32:45;3.78;;;2.97;;
25615;SDS011;13482;48.234;13.006;2022-10-29T08:35:13;4.45;;;3.10;;
25615;SDS011;13482;48.234;13.006;2022-10-29T08:37:43;2.83;;;2.35;;
25615;SDS011;13482;48.234;13.006;2022-10-29T08:49:44;4.38;;;2.60;;
25615;SDS011;13482;48.234;13.006;2022-10-29T08:52:29;2.90;;;2.00;;
25615;SDS011;13482;48.234;13.006;2022-10-29T08:57:58;2.80;;;2.03;;
25615;SDS011;13482;48.234;13.006;2022-10-29T09:00:58;2.45;;;1.90;;
25615;SDS011;13482;48.234;13.006;2022-10-29T09:03:26;3.20;;;2.00;;
25615;SDS011;13482;48.234;13.006;2022-10-29T09:24:18;3.95;;;2.20;;
25615;SDS011;13482;48.234;13.006;2022-10-29T09:26:57;2.13;;;1.87;;
25615;SDS011;13482;48.234;13.006;2022-10-29T09:35:21;2.30;;;1.77;;
25615;SDS011;13482;48.234;13.006;2022-10-29T09:38:17;2.70;;;2.10;;
25615;SDS011;13482;48.234;13.006;2022-10-29T09:41:18;4.65;;;2.55;;
25615;SDS011;13482;48.234;13.006;2022-10-29T09:43:48;2.90;;;1.73;;
25615;SDS011;13482;48.234;13.006;2022-10-29T09:51:57;2.05;;;1.50;;
25615;SDS011;13482;48.234;13.006;2022-10-29T09:54:32;2.20;;;1.70;;
25615;SDS011;13482;48.234;13.006;2022-10-29T09:57:00;2.40;;;1.80;;
25615;SDS011;13482;48.234;13.006;2022-10-29T10:02:25;2.20;;;1.80;;
25615;SDS011;13482;48.234;13.006;2022-10-29T10:05:13;2.20;;;1.70;;
25615;SDS011;13482;48.234;13.006;2022-10-29T10:10:36;2.75;;;1.50;;
25615;SDS011;13482;48.234;13.006;2022-10-29T10:13:19;3.58;;;1.73;;
25615;SDS011;13482;48.234;13.006;2022-10-29T10:16:00;3.40;;;1.90;;
25615;SDS011;13482;48.234;13.006;2022-10-29T10:20:59;2.70;;;1.90;;
25615;SDS011;13482;48.234;13.006;2022-10-29T10:23:47;2.30;;;1.45;;
25615;SDS011;13482;48.234;13.006;2022-10-29T10:29:22;3.65;;;1.98;;
25615;SDS011;13482;48.234;13.006;2022-10-29T10:32:14;2.45;;;1.98;;
25615;SDS011;13482;48.234;13.006;2022-10-29T10:34:42;2.70;;;1.88;;
25615;SDS011;13482;48.234;13.006;2022-10-29T10:42:13;3.25;;;2.33;;
25615;SDS011;13482;48.234;13.006;2022-10-29T10:44:50;2.90;;;2.13;;
25615;SDS011;13482;48.234;13.006;2022-10-29T10:47:25;3.22;;;2.35;;
25615;SDS011;13482;48.234;13.006;2022-10-29T10:50:11;3.20;;;1.88;;
25615;SDS011;13482;48.234;13.006;2022-10-29T10:52:42;2.58;;;1.85;;
25615;SDS011;13482;48.234;13.006;2022-10-29T10:55:22;2.90;;;1.80;;
25615;SDS011;13482;48.234;13.006;2022-10-29T11:00:39;2.58;;;1.77;;
25615;SDS011;13482;48.234;13.006;2022-10-29T11:03:42;2.90;;;1.60;;
25615;SDS011;13482;48.234;13.006;2022-10-29T11:06:18;2.38;;;1.67;;
25615;SDS011;13482;48.234;13.006;2022-10-29T11:11:59;2.92;;;1.63;;
25615;SDS011;13482;48.234;13.006;2022-10-29T11:15:00;2.10;;;1.60;;
25615;SDS011;13482;48.234;13.006;2022-10-29T11:17:54;4.20;;;1.65;;
25615;SDS011;13482;48.234;13.006;2022-10-29T11:20:37;3.05;;;1.60;;
25615;SDS011;13482;48.234;13.006;2022-10-29T11:28:30;3.17;;;2.00;;
25615;SDS011;13482;48.234;13.006;2022-10-29T11:34:04;2.92;;;2.13;;
25615;SDS011;13482;48.234;13.006;2022-10-29T11:37:01;2.90;;;1.92;;
25615;SDS011;13482;48.234;13.006;2022-10-29T11:39:56;3.83;;;2.00;;
25615;SDS011;13482;48.234;13.006;2022-10-29T11:42:28;2.67;;;2.00;;
25615;SDS011;13482;48.234;13.006;2022-10-29T11:44:57;5.00;;;2.70;;
25615;SDS011;13482;48.234;13.006;2022-10-29T11:48:12;3.78;;;2.45;;
25615;SDS011;13482;48.234;13.006;2022-10-29T11:59:20;3.13;;;2.55;;
25615;SDS011;13482;48.234;13.006;2022-10-29T12:13:57;4.63;;;2.30;;
25615;SDS011;13482;48.234;13.006;2022-10-29T12:28:05;3.53;;;2.40;;
25615;SDS011;13482;48.234;13.006;2022-10-29T12:31:19;4.35;;;2.00;;
25615;SDS011;13482;48.234;13.006;2022-10-29T12:35:09;4.13;;;1.95;;
25615;SDS011;13482;48.234;13.006;2022-10-29T12:37:51;3.28;;;1.83;;
25615;SDS011;13482;48.234;13.006;2022-10-29T12:40:42;3.13;;;1.88;;
25615;SDS011;13482;48.234;13.006;2022-10-29T12:43:18;4.38;;;2.20;;
25615;SDS011;13482;48.234;13.006;2022-10-29T12:51:48;4.13;;;1.88;;
25615;SDS011;13482;48.234;13.006;2022-10-29T12:54:37;3.15;;;1.67;;
25615;SDS011;13482;48.234;13.006;2022-10-29T12:59:41;3.60;;;1.83;;
25615;SDS011;13482;48.234;13.006;2022-10-29T13:12:59;3.45;;;2.10;;
25615;SDS011;13482;48.234;13.006;2022-10-29T13:18:42;4.00;;;1.70;;
25615;SDS011;13482;48.234;13.006;2022-10-29T13:24:23;2.95;;;1.77;;
25615;SDS011;13482;48.234;13.006;2022-10-29T13:26:58;3.42;;;1.50;;
25615;SDS011;13482;48.234;13.006;2022-10-29T13:29:39;3.10;;;1.63;;
25615;SDS011;13482;48.234;13.006;2022-10-29T13:32:29;3.38;;;1.70;;
25615;SDS011;13482;48.234;13.006;2022-10-29T13:35:03;3.22;;;1.75;;
25615;SDS011;13482;48.234;13.006;2022-10-29T13:45:27;2.85;;;1.90;;
25615;SDS011;13482;48.234;13.006;2022-10-29T13:47:57;2.65;;;1.80;;
25615;SDS011;13482;48.234;13.006;2022-10-29T13:50:50;4.45;;;1.85;;
25615;SDS011;13482;48.234;13.006;2022-10-29T13:53:22;2.85;;;1.88;;
25615;SDS011;13482;48.234;13.006;2022-10-29T13:56:23;2.55;;;1.67;;
25615;SDS011;13482;48.234;13.006;2022-10-29T13:59:00;4.65;;;1.98;;
25615;SDS011;13482;48.234;13.006;2022-10-29T14:01:34;2.70;;;1.60;;
25615;SDS011;13482;48.234;13.006;2022-10-29T14:04:04;4.68;;;1.90;;
25615;SDS011;13482;48.234;13.006;2022-10-29T14:06:49;3.40;;;1.70;;
25615;SDS011;13482;48.234;13.006;2022-10-29T14:09:31;3.55;;;1.60;;
25615;SDS011;13482;48.234;13.006;2022-10-29T14:12:22;1.80;;;1.17;;
25615;SDS011;13482;48.234;13.006;2022-10-29T14:14:57;2.88;;;1.80;;
25615;SDS011;13482;48.234;13.006;2022-10-29T14:17:32;1.83;;;1.23;;
25615;SDS011;13482;48.234;13.006;2022-10-29T14:19:59;2.47;;;1.52;;
25615;SDS011;13482;48.234;13.006;2022-10-29T14:22:27;4.60;;;1.80;;
25615;SDS011;13482;48.234;13.006;2022-10-29T14:30:38;5.75;;;1.65;;
25615;SDS011;13482;48.234;13.006;2022-10-29T14:33:21;2.80;;;1.70;;
25615;SDS011;13482;48.234;13.006;2022-10-29T14:35:49;2.80;;;1.55;;
25615;SDS011;13482;48.234;13.006;2022-10-29T14:38:26;2.50;;;1.50;;
25615;SDS011;13482;48.234;13.006;2022-10-29T14:41:20;2.80;;;1.65;;
25615;SDS011;13482;48.234;13.006;2022-10-29T14:46:31;3.20;;;1.67;;
25615;SDS011;13482;48.234;13.006;2022-10-29T14:49:02;2.55;;;1.63;;
25615;SDS011;13482;48.234;13.006;2022-10-29T14:51:48;4.03;;;2.03;;
25615;SDS011;13482;48.234;13.006;2022-10-29T14:54:30;4.55;;;3.30;;
25615;SDS011;13482;48.234;13.006;2022-10-29T14:57:11;6.95;;;3.33;;
25615;SDS011;13482;48.234;13.006;2022-10-29T14:59:46;3.53;;;2.45;;
25615;SDS011;13482;48.234;13.006;2022-10-29T15:02:34;3.80;;;1.95;;
25615;SDS011;13482;48.234;13.006;2022-10-29T15:05:38;2.47;;;1.70;;
25615;SDS011;13482;48.234;13.006;2022-10-29T15:08:05;3.80;;;2.05;;
25615;SDS011;13482;48.234;13.006;2022-10-29T15:10:58;4.63;;;1.70;;
25615;SDS011;13482;48.234;13.006;2022-10-29T15:15:56;2.38;;;1.63;;
25615;SDS011;13482;48.234;13.006;2022-10-29T15:18:45;3.33;;;1.85;;
25615;SDS011;13482;48.234;13.006;2022-10-29T15:21:26;3.00;;;1.90;;
25615;SDS011;13482;48.234;13.006;2022-10-29T15:24:04;3.15;;;2.03;;
25615;SDS011;13482;48.234;13.006;2022-10-29T15:26:35;3.90;;;1.83;;
25615;SDS011;13482;48.234;13.006;2022-10-29T15:29:12;3.28;;;2.17;;
25615;SDS011;13482;48.234;13.006;2022-10-29T15:31:47;4.20;;;2.60;;
25615;SDS011;13482;48.234;13.006;2022-10-29T15:34:17;4.00;;;2.58;;
25615;SDS011;13482;48.234;13.006;2022-10-29T15:36:50;5.25;;;2.55;;
25615;SDS011;13482;48.234;13.006;2022-10-29T15:39:25;5.07;;;3.00;;
25615;SDS011;13482;48.234;13.006;2022-10-29T15:41:58;4.97;;;3.45;;
25615;SDS011;13482;48.234;13.006;2022-10-29T15:50:08;4.80;;;3.03;;
25615;SDS011;13482;48.234;13.006;2022-10-29T15:55:29;3.72;;;2.22;;
25615;SDS011;13482;48.234;13.006;2022-10-29T15:57:59;3.55;;;2.50;;
25615;SDS011;13482;48.234;13.006;2022-10-29T16:00:28;4.93;;;3.17;;
25615;SDS011;13482;48.234;13.006;2022-10-29T16:02:59;5.75;;;3.35;;
25615;SDS011;13482;48.234;13.006;2022-10-29T16:05:46;5.15;;;2.88;;
25615;SDS011;13482;48.234;13.006;2022-10-29T16:08:21;6.30;;;3.60;;
25615;SDS011;13482;48.234;13.006;2022-10-29T16:10:52;6.45;;;3.47;;
25615;SDS011;13482;48.234;13.006;2022-10-29T16:13:21;5.53;;;2.78;;
25615;SDS011;13482;48.234;13.006;2022-10-29T16:15:50;4.50;;;2.53;;
25615;SDS011;13482;48.234;13.006;2022-10-29T16:18:17;4.63;;;3.13;;
25615;SDS011;13482;48.234;13.006;2022-10-29T16:20:45;5.22;;;3.45;;
25615;SDS011;13482;48.234;13.006;2022-10-29T16:23:13;5.07;;;3.33;;
25615;SDS011;13482;48.234;13.006;2022-10-29T16:25:40;4.70;;;3.63;;
25615;SDS011;13482;48.234;13.006;2022-10-29T16:28:08;6.10;;;4.45;;
25615;SDS011;13482;48.234;13.006;2022-10-29T16:30:36;5.45;;;4.15;;
25615;SDS011;13482;48.234;13.006;2022-10-29T16:33:11;7.63;;;5.00;;
25615;SDS011;13482;48.234;13.006;2022-10-29T16:35:38;6.63;;;4.72;;
25615;SDS011;13482;48.234;13.006;2022-10-29T16:38:05;6.68;;;4.05;;
25615;SDS011;13482;48.234;13.006;2022-10-29T16:40:32;9.30;;;5.93;;
25615;SDS011;13482;48.234;13.006;2022-10-29T16:43:00;11.40;;;7.88;;
25615;SDS011;13482;48.234;13.006;2022-10-29T16:45:27;10.85;;;6.82;;
25615;SDS011;13482;48.234;13.006;2022-10-29T16:47:56;9.27;;;5.93;;
25615;SDS011;13482;48.234;13.006;2022-10-29T16:50:25;9.98;;;7.05;;
25615;SDS011;13482;48.234;13.006;2022-10-29T16:52:58;11.57;;;7.53;;
25615;SDS011;13482;48.234;13.006;2022-10-29T16:55:34;10.52;;;7.43;;
25615;SDS011;13482;48.234;13.006;2022-10-29T16:58:08;9.30;;;5.82;;
25615;SDS011;13482;48.234;13.006;2022-10-29T17:00:38;6.30;;;4.40;;
25615;SDS011;13482;48.234;13.006;2022-10-29T17:03:05;7.38;;;4.47;;
25615;SDS011;13482;48.234;13.006;2022-10-29T17:05:41;7.07;;;4.70;;
25615;SDS011;13482;48.234;13.006;2022-10-29T17:08:10;7.43;;;4.45;;
25615;SDS011;13482;48.234;13.006;2022-10-29T17:10:38;5.88;;;4.30;;
25615;SDS011;13482;48.234;13.006;2022-10-29T17:13:05;7.97;;;4.85;;
25615;SDS011;13482;48.234;13.006;2022-10-29T17:15:34;8.18;;;5.95;;
25615;SDS011;13482;48.234;13.006;2022-10-29T17:18:07;8.25;;;5.85;;
25615;SDS011;13482;48.234;13.006;2022-10-29T17:20:34;7.72;;;5.65;;
25615;SDS011;13482;48.234;13.006;2022-10-29T17:23:01;10.77;;;5.20;;
25615;SDS011;13482;48.234;13.006;2022-10-29T17:25:28;7.40;;;4.90;;
25615;SDS011;13482;48.234;13.006;2022-10-29T17:27:55;6.53;;;4.80;;
25615;SDS011;13482;48.234;13.006;2022-10-29T17:30:23;7.65;;;4.00;;
25615;SDS011;13482;48.234;13.006;2022-10-29T17:32:50;5.95;;;3.50;;
25615;SDS011;13482;48.234;13.006;2022-10-29T17:35:17;6.25;;;3.05;;
25615;SDS011;13482;48.234;13.006;2022-10-29T17:37:44;5.68;;;2.72;;
25615;SDS011;13482;48.234;13.006;2022-10-29T17:40:11;6.50;;;3.30;;
25615;SDS011;13482;48.234;13.006;2022-10-29T17:42:39;4.95;;;3.63;;
25615;SDS011;13482;48.234;13.006;2022-10-29T17:45:06;7.13;;;4.15;;
25615;SDS011;13482;48.234;13.006;2022-10-29T17:47:34;6.90;;;4.13;;
25615;SDS011;13482;48.234;13.006;2022-10-29T17:50:01;5.47;;;3.50;;
25615;SDS011;13482;48.234;13.006;2022-10-29T17:52:29;4.95;;;2.80;;
25615;SDS011;13482;48.234;13.006;2022-10-29T17:54:56;5.47;;;2.92;;
25615;SDS011;13482;48.234;13.006;2022-10-29T17:57:23;6.38;;;2.67;;
25615;SDS011;13482;48.234;13.006;2022-10-29T17:59:50;4.85;;;2.60;;
25615;SDS011;13482;48.234;13.006;2022-10-29T18:02:17;3.88;;;2.38;;
25615;SDS011;13482;48.234;13.006;2022-10-29T18:04:44;4.53;;;2.50;;
25615;SDS011;13482;48.234;13.006;2022-10-29T18:07:12;4.45;;;2.80;;
25615;SDS011;13482;48.234;13.006;2022-10-29T18:09:39;4.95;;;3.00;;
25615;SDS011;13482;48.234;13.006;2022-10-29T18:12:06;4.38;;;2.70;;
25615;SDS011;13482;48.234;13.006;2022-10-29T18:14:33;5.85;;;2.85;;
25615;SDS011;13482;48.234;13.006;2022-10-29T18:17:00;5.53;;;2.92;;